sensor_id;sensor_type;location;lat;lon;timestamp;temperature;humidity
27544;DHT22;17996;51.056;3.656;2024-03-08T00:00:18;7.00;99.90
27544;DHT22;17996;51.056;3.656;2024-03-08T00:02:47;7.00;99.90
27544;DHT22;17996;51.056;3.656;2024-03-08T00:05:14;7.00;99.90
27544;DHT22;17996;51.056;3.656;2024-03-08T00:07:46;7.00;99.90
27544;DHT22;17996;51.056;3.656;2024-03-08T00:10:12;6.90;99.90
27544;DHT22;17996;51.056;3.656;2024-03-08T00:12:45;6.90;99.90
27544;DHT22;17996;51.056;3.656;2024-03-08T00:15:17;6.90;99.90
27544;DHT22;17996;51.056;3.656;2024-03-08T00:17:45;6.90;99.90
27544;DHT22;17996;51.056;3.656;2024-03-08T00:20:12;6.80;99.90
27544;DHT22;17996;51.056;3.656;2024-03-08T00:22:39;6.80;99.90
27544;DHT22;17996;51.056;3.656;2024-03-08T00:25:07;6.80;99.90
27544;DHT22;17996;51.056;3.656;2024-03-08T00:27:37;6.80;99.90
27544;DHT22;17996;51.056;3.656;2024-03-08T00:30:05;6.80;99.90
27544;DHT22;17996;51.056;3.656;2024-03-08T00:32:32;6.80;99.90
27544;DHT22;17996;51.056;3.656;2024-03-08T00:34:59;6.70;99.90
27544;DHT22;17996;51.056;3.656;2024-03-08T00:37:27;6.70;99.90
27544;DHT22;17996;51.056;3.656;2024-03-08T00:39:53;6.70;99.90
27544;DHT22;17996;51.056;3.656;2024-03-08T00:42:21;6.70;99.90
27544;DHT22;17996;51.056;3.656;2024-03-08T00:44:50;6.70;99.90
27544;DHT22;17996;51.056;3.656;2024-03-08T00:47:19;6.70;99.90
27544;DHT22;17996;51.056;3.656;2024-03-08T00:49:45;6.70;99.90
27544;DHT22;17996;51.056;3.656;2024-03-08T00:52:11;6.70;99.90
27544;DHT22;17996;51.056;3.656;2024-03-08T00:54:40;6.70;99.90
27544;DHT22;17996;51.056;3.656;2024-03-08T00:57:06;6.60;99.90
27544;DHT22;17996;51.056;3.656;2024-03-08T00:59:33;6.70;99.90
27544;DHT22;17996;51.056;3.656;2024-03-08T01:02:02;6.60;99.90
27544;DHT22;17996;51.056;3.656;2024-03-08T01:04:29;6.60;99.90
27544;DHT22;17996;51.056;3.656;2024-03-08T01:06:58;6.60;99.90
27544;DHT22;17996;51.056;3.656;2024-03-08T01:09:27;6.60;99.90
27544;DHT22;17996;51.056;3.656;2024-03-08T01:11:55;6.60;99.90
27544;DHT22;17996;51.056;3.656;2024-03-08T01:14:23;6.50;99.90
27544;DHT22;17996;51.056;3.656;2024-03-08T01:16:52;6.60;99.90
27544;DHT22;17996;51.056;3.656;2024-03-08T01:19:19;6.50;99.90
27544;DHT22;17996;51.056;3.656;2024-03-08T01:21:44;6.50;99.90
27544;DHT22;17996;51.056;3.656;2024-03-08T01:24:13;6.50;99.90
27544;DHT22;17996;51.056;3.656;2024-03-08T01:26:39;6.50;99.90
27544;DHT22;17996;51.056;3.656;2024-03-08T01:29:05;6.50;99.90
27544;DHT22;17996;51.056;3.656;2024-03-08T01:31:33;6.50;99.90
27544;DHT22;17996;51.056;3.656;2024-03-08T01:34:00;6.50;99.90
27544;DHT22;17996;51.056;3.656;2024-03-08T01:36:28;6.50;99.90
27544;DHT22;17996;51.056;3.656;2024-03-08T01:38:54;6.50;99.90
27544;DHT22;17996;51.056;3.656;2024-03-08T01:41:20;6.40;99.90
27544;DHT22;17996;51.056;3.656;2024-03-08T01:43:48;6.50;99.90
27544;DHT22;17996;51.056;3.656;2024-03-08T01:46:19;6.50;99.90
27544;DHT22;17996;51.056;3.656;2024-03-08T01:48:47;6.50;99.90
27544;DHT22;17996;51.056;3.656;2024-03-08T01:51:14;6.40;99.90
27544;DHT22;17996;51.056;3.656;2024-03-08T01:53:43;6.40;99.90
27544;DHT22;17996;51.056;3.656;2024-03-08T01:56:11;6.40;99.90
27544;DHT22;17996;51.056;3.656;2024-03-08T01:58:42;6.40;99.90
27544;DHT22;17996;51.056;3.656;2024-03-08T02:01:15;6.40;99.90
27544;DHT22;17996;51.056;3.656;2024-03-08T02:03:43;6.30;99.90
27544;DHT22;17996;51.056;3.656;2024-03-08T02:06:12;6.30;99.90
27544;DHT22;17996;51.056;3.656;2024-03-08T02:08:41;6.30;99.90
27544;DHT22;17996;51.056;3.656;2024-03-08T02:11:08;6.30;99.90
27544;DHT22;17996;51.056;3.656;2024-03-08T02:13:37;6.30;99.90
27544;DHT22;17996;51.056;3.656;2024-03-08T02:16:03;6.30;99.90
27544;DHT22;17996;51.056;3.656;2024-03-08T02:18:30;6.30;99.90
27544;DHT22;17996;51.056;3.656;2024-03-08T02:20:59;6.30;99.90
27544;DHT22;17996;51.056;3.656;2024-03-08T02:23:26;6.30;99.90
27544;DHT22;17996;51.056;3.656;2024-03-08T02:25:56;6.30;99.90
27544;DHT22;17996;51.056;3.656;2024-03-08T02:28:35;6.30;99.90
27544;DHT22;17996;51.056;3.656;2024-03-08T02:31:03;6.20;99.90
27544;DHT22;17996;51.056;3.656;2024-03-08T02:33:33;6.20;99.90
27544;DHT22;17996;51.056;3.656;2024-03-08T02:35:59;6.20;99.90
27544;DHT22;17996;51.056;3.656;2024-03-08T02:38:32;6.20;99.90
27544;DHT22;17996;51.056;3.656;2024-03-08T02:41:01;6.20;99.90
27544;DHT22;17996;51.056;3.656;2024-03-08T02:43:32;6.20;99.90
27544;DHT22;17996;51.056;3.656;2024-03-08T02:45:59;6.20;99.90
27544;DHT22;17996;51.056;3.656;2024-03-08T02:48:28;6.20;99.90
27544;DHT22;17996;51.056;3.656;2024-03-08T02:50:55;6.20;99.90
27544;DHT22;17996;51.056;3.656;2024-03-08T02:53:24;6.10;99.90
27544;DHT22;17996;51.056;3.656;2024-03-08T02:55:53;6.10;99.90
27544;DHT22;17996;51.056;3.656;2024-03-08T02:58:20;6.10;99.90
27544;DHT22;17996;51.056;3.656;2024-03-08T03:00:49;6.10;99.90
27544;DHT22;17996;51.056;3.656;2024-03-08T03:03:16;6.10;99.90
27544;DHT22;17996;51.056;3.656;2024-03-08T03:05:42;6.10;99.90
27544;DHT22;17996;51.056;3.656;2024-03-08T03:08:08;6.10;99.90
27544;DHT22;17996;51.056;3.656;2024-03-08T03:10:36;6.00;99.90
27544;DHT22;17996;51.056;3.656;2024-03-08T03:13:02;6.00;99.90
27544;DHT22;17996;51.056;3.656;2024-03-08T03:15:33;6.00;99.90
27544;DHT22;17996;51.056;3.656;2024-03-08T03:18:00;6.00;99.90
27544;DHT22;17996;51.056;3.656;2024-03-08T03:20:29;6.00;99.90
27544;DHT22;17996;51.056;3.656;2024-03-08T03:23:09;6.00;99.90
27544;DHT22;17996;51.056;3.656;2024-03-08T03:25:49;5.90;99.90
27544;DHT22;17996;51.056;3.656;2024-03-08T03:28:16;5.90;99.90
27544;DHT22;17996;51.056;3.656;2024-03-08T03:30:49;5.90;99.90
27544;DHT22;17996;51.056;3.656;2024-03-08T03:33:17;5.90;99.90
27544;DHT22;17996;51.056;3.656;2024-03-08T03:35:45;5.90;99.90
27544;DHT22;17996;51.056;3.656;2024-03-08T03:38:14;5.90;99.90
27544;DHT22;17996;51.056;3.656;2024-03-08T03:40:40;5.80;99.90
27544;DHT22;17996;51.056;3.656;2024-03-08T03:43:09;5.80;99.90
27544;DHT22;17996;51.056;3.656;2024-03-08T03:45:37;5.80;99.90
27544;DHT22;17996;51.056;3.656;2024-03-08T03:48:07;5.70;99.90
27544;DHT22;17996;51.056;3.656;2024-03-08T03:50:37;5.80;99.90
27544;DHT22;17996;51.056;3.656;2024-03-08T03:53:05;5.80;99.90
27544;DHT22;17996;51.056;3.656;2024-03-08T03:55:36;5.80;99.90
27544;DHT22;17996;51.056;3.656;2024-03-08T03:58:04;5.70;99.90
27544;DHT22;17996;51.056;3.656;2024-03-08T04:00:29;5.70;99.90
27544;DHT22;17996;51.056;3.656;2024-03-08T04:02:56;5.70;99.90
27544;DHT22;17996;51.056;3.656;2024-03-08T04:05:26;5.80;99.90
27544;DHT22;17996;51.056;3.656;2024-03-08T04:07:51;5.70;99.90
27544;DHT22;17996;51.056;3.656;2024-03-08T04:10:20;5.70;99.90
27544;DHT22;17996;51.056;3.656;2024-03-08T04:12:47;5.70;99.90
27544;DHT22;17996;51.056;3.656;2024-03-08T04:15:16;5.70;99.90
27544;DHT22;17996;51.056;3.656;2024-03-08T04:17:44;5.70;99.90
27544;DHT22;17996;51.056;3.656;2024-03-08T04:20:11;5.60;99.90
27544;DHT22;17996;51.056;3.656;2024-03-08T04:22:37;5.60;99.90
27544;DHT22;17996;51.056;3.656;2024-03-08T04:25:07;5.70;99.90
27544;DHT22;17996;51.056;3.656;2024-03-08T04:27:33;5.60;99.90
27544;DHT22;17996;51.056;3.656;2024-03-08T04:30:00;5.60;99.90
27544;DHT22;17996;51.056;3.656;2024-03-08T04:32:27;5.60;99.90
27544;DHT22;17996;51.056;3.656;2024-03-08T04:34:57;5.60;99.90
27544;DHT22;17996;51.056;3.656;2024-03-08T04:37:26;5.60;99.90
27544;DHT22;17996;51.056;3.656;2024-03-08T04:39:55;5.60;99.90
27544;DHT22;17996;51.056;3.656;2024-03-08T04:42:24;5.50;99.90
27544;DHT22;17996;51.056;3.656;2024-03-08T04:44:51;5.50;99.90
27544;DHT22;17996;51.056;3.656;2024-03-08T04:47:21;5.50;99.90
27544;DHT22;17996;51.056;3.656;2024-03-08T04:49:49;5.50;99.90
27544;DHT22;17996;51.056;3.656;2024-03-08T04:52:16;5.50;99.90
27544;DHT22;17996;51.056;3.656;2024-03-08T04:54:44;5.50;99.90
27544;DHT22;17996;51.056;3.656;2024-03-08T04:57:13;5.50;99.90
27544;DHT22;17996;51.056;3.656;2024-03-08T04:59:41;5.50;99.90
27544;DHT22;17996;51.056;3.656;2024-03-08T05:02:07;5.40;99.90
27544;DHT22;17996;51.056;3.656;2024-03-08T05:04:33;5.40;99.90
27544;DHT22;17996;51.056;3.656;2024-03-08T05:06:58;5.40;99.90
27544;DHT22;17996;51.056;3.656;2024-03-08T05:09:28;5.40;99.90
27544;DHT22;17996;51.056;3.656;2024-03-08T05:11:56;5.40;99.90
27544;DHT22;17996;51.056;3.656;2024-03-08T05:14:31;5.40;99.90
27544;DHT22;17996;51.056;3.656;2024-03-08T05:17:00;5.30;99.90
27544;DHT22;17996;51.056;3.656;2024-03-08T05:19:29;5.30;99.90
27544;DHT22;17996;51.056;3.656;2024-03-08T05:22:00;5.30;99.90
27544;DHT22;17996;51.056;3.656;2024-03-08T05:24:30;5.50;99.90
27544;DHT22;17996;51.056;3.656;2024-03-08T05:26:57;5.30;99.90
27544;DHT22;17996;51.056;3.656;2024-03-08T05:29:25;5.30;99.90
27544;DHT22;17996;51.056;3.656;2024-03-08T05:31:52;5.30;99.90
27544;DHT22;17996;51.056;3.656;2024-03-08T05:34:21;5.30;99.90
27544;DHT22;17996;51.056;3.656;2024-03-08T05:36:50;5.30;99.90
27544;DHT22;17996;51.056;3.656;2024-03-08T05:39:19;5.30;99.90
27544;DHT22;17996;51.056;3.656;2024-03-08T05:44:17;5.20;99.90
27544;DHT22;17996;51.056;3.656;2024-03-08T05:46:44;5.30;99.90
27544;DHT22;17996;51.056;3.656;2024-03-08T05:49:13;5.20;99.90
27544;DHT22;17996;51.056;3.656;2024-03-08T05:51:45;5.20;99.90
27544;DHT22;17996;51.056;3.656;2024-03-08T05:54:15;5.20;99.90
27544;DHT22;17996;51.056;3.656;2024-03-08T05:56:41;5.20;99.90
27544;DHT22;17996;51.056;3.656;2024-03-08T05:59:11;5.20;99.90
27544;DHT22;17996;51.056;3.656;2024-03-08T06:01:38;5.20;99.90
27544;DHT22;17996;51.056;3.656;2024-03-08T06:04:07;5.10;99.90
27544;DHT22;17996;51.056;3.656;2024-03-08T06:06:36;5.20;99.90
27544;DHT22;17996;51.056;3.656;2024-03-08T06:09:04;5.10;99.90
27544;DHT22;17996;51.056;3.656;2024-03-08T06:11:36;5.10;99.90
27544;DHT22;17996;51.056;3.656;2024-03-08T06:14:09;5.10;99.90
27544;DHT22;17996;51.056;3.656;2024-03-08T06:16:37;5.10;99.90
27544;DHT22;17996;51.056;3.656;2024-03-08T06:19:04;5.10;99.90
27544;DHT22;17996;51.056;3.656;2024-03-08T06:21:29;5.10;99.90
27544;DHT22;17996;51.056;3.656;2024-03-08T06:23:56;5.10;99.90
27544;DHT22;17996;51.056;3.656;2024-03-08T06:26:31;5.10;99.90
27544;DHT22;17996;51.056;3.656;2024-03-08T06:28:59;5.10;99.90
27544;DHT22;17996;51.056;3.656;2024-03-08T06:31:26;5.10;99.90
27544;DHT22;17996;51.056;3.656;2024-03-08T06:33:54;5.10;99.90
27544;DHT22;17996;51.056;3.656;2024-03-08T06:36:20;5.00;99.90
27544;DHT22;17996;51.056;3.656;2024-03-08T06:38:53;5.00;99.90
27544;DHT22;17996;51.056;3.656;2024-03-08T06:41:21;5.00;99.90
27544;DHT22;17996;51.056;3.656;2024-03-08T06:43:48;5.00;99.90
27544;DHT22;17996;51.056;3.656;2024-03-08T06:46:17;5.00;99.90
27544;DHT22;17996;51.056;3.656;2024-03-08T06:48:43;5.00;99.90
27544;DHT22;17996;51.056;3.656;2024-03-08T06:51:11;5.00;99.90
27544;DHT22;17996;51.056;3.656;2024-03-08T06:53:39;5.00;99.90
27544;DHT22;17996;51.056;3.656;2024-03-08T06:56:05;5.00;99.90
27544;DHT22;17996;51.056;3.656;2024-03-08T06:58:35;5.00;99.90
27544;DHT22;17996;51.056;3.656;2024-03-08T07:01:01;5.00;99.90
27544;DHT22;17996;51.056;3.656;2024-03-08T07:03:30;5.10;99.90
27544;DHT22;17996;51.056;3.656;2024-03-08T07:05:57;5.10;99.90
27544;DHT22;17996;51.056;3.656;2024-03-08T07:08:26;5.10;99.90
27544;DHT22;17996;51.056;3.656;2024-03-08T07:10:53;5.10;99.90
27544;DHT22;17996;51.056;3.656;2024-03-08T07:13:19;5.20;99.90
27544;DHT22;17996;51.056;3.656;2024-03-08T07:15:45;5.20;99.90
27544;DHT22;17996;51.056;3.656;2024-03-08T07:18:14;5.20;99.90
27544;DHT22;17996;51.056;3.656;2024-03-08T07:20:42;5.20;99.90
27544;DHT22;17996;51.056;3.656;2024-03-08T07:23:12;5.30;99.90
27544;DHT22;17996;51.056;3.656;2024-03-08T07:25:58;5.30;99.90
27544;DHT22;17996;51.056;3.656;2024-03-08T07:28:27;5.30;99.90
27544;DHT22;17996;51.056;3.656;2024-03-08T07:30:58;5.30;99.90
27544;DHT22;17996;51.056;3.656;2024-03-08T07:33:40;5.40;99.90
27544;DHT22;17996;51.056;3.656;2024-03-08T07:36:06;5.40;99.90
27544;DHT22;17996;51.056;3.656;2024-03-08T07:38:32;5.40;99.90
27544;DHT22;17996;51.056;3.656;2024-03-08T07:40:57;5.40;99.90
27544;DHT22;17996;51.056;3.656;2024-03-08T07:43:24;5.40;99.90
27544;DHT22;17996;51.056;3.656;2024-03-08T07:45:51;5.40;99.90
27544;DHT22;17996;51.056;3.656;2024-03-08T07:48:24;5.40;99.90
27544;DHT22;17996;51.056;3.656;2024-03-08T07:50:52;5.50;99.90
27544;DHT22;17996;51.056;3.656;2024-03-08T07:53:19;5.50;99.90
27544;DHT22;17996;51.056;3.656;2024-03-08T07:55:46;5.60;99.90
27544;DHT22;17996;51.056;3.656;2024-03-08T07:58:13;5.60;99.90
27544;DHT22;17996;51.056;3.656;2024-03-08T08:00:42;5.60;99.90
27544;DHT22;17996;51.056;3.656;2024-03-08T08:03:09;5.60;99.90
27544;DHT22;17996;51.056;3.656;2024-03-08T08:05:38;5.60;99.90
27544;DHT22;17996;51.056;3.656;2024-03-08T08:08:13;5.60;99.90
27544;DHT22;17996;51.056;3.656;2024-03-08T08:10:39;5.60;99.90
27544;DHT22;17996;51.056;3.656;2024-03-08T08:13:06;5.60;99.90
27544;DHT22;17996;51.056;3.656;2024-03-08T08:15:32;5.70;99.90
27544;DHT22;17996;51.056;3.656;2024-03-08T08:18:02;5.70;99.90
27544;DHT22;17996;51.056;3.656;2024-03-08T08:20:31;5.80;99.90
27544;DHT22;17996;51.056;3.656;2024-03-08T08:22:57;5.70;99.90
27544;DHT22;17996;51.056;3.656;2024-03-08T08:25:25;5.80;99.90
27544;DHT22;17996;51.056;3.656;2024-03-08T08:27:52;5.80;99.90
27544;DHT22;17996;51.056;3.656;2024-03-08T08:30:19;5.90;99.90
27544;DHT22;17996;51.056;3.656;2024-03-08T08:32:47;5.90;99.90
27544;DHT22;17996;51.056;3.656;2024-03-08T08:35:14;5.90;99.90
27544;DHT22;17996;51.056;3.656;2024-03-08T08:37:41;6.00;99.90
27544;DHT22;17996;51.056;3.656;2024-03-08T08:40:07;6.00;99.90
27544;DHT22;17996;51.056;3.656;2024-03-08T08:42:40;6.00;99.90
27544;DHT22;17996;51.056;3.656;2024-03-08T08:45:07;6.10;99.90
27544;DHT22;17996;51.056;3.656;2024-03-08T08:47:37;6.00;99.90
27544;DHT22;17996;51.056;3.656;2024-03-08T08:50:03;6.10;99.90
27544;DHT22;17996;51.056;3.656;2024-03-08T08:52:32;6.10;99.90
27544;DHT22;17996;51.056;3.656;2024-03-08T08:55:01;6.20;99.90
27544;DHT22;17996;51.056;3.656;2024-03-08T08:57:29;6.20;99.90
27544;DHT22;17996;51.056;3.656;2024-03-08T08:59:56;6.30;99.90
27544;DHT22;17996;51.056;3.656;2024-03-08T09:02:23;6.30;99.90
27544;DHT22;17996;51.056;3.656;2024-03-08T09:04:54;6.30;99.90
27544;DHT22;17996;51.056;3.656;2024-03-08T09:07:23;6.40;99.90
27544;DHT22;17996;51.056;3.656;2024-03-08T09:09:51;6.40;99.90
27544;DHT22;17996;51.056;3.656;2024-03-08T09:12:17;6.40;99.90
27544;DHT22;17996;51.056;3.656;2024-03-08T09:14:43;6.40;99.90
27544;DHT22;17996;51.056;3.656;2024-03-08T09:17:09;6.50;99.90
27544;DHT22;17996;51.056;3.656;2024-03-08T09:19:35;6.50;99.90
27544;DHT22;17996;51.056;3.656;2024-03-08T09:22:02;6.60;99.90
27544;DHT22;17996;51.056;3.656;2024-03-08T09:24:31;6.60;99.90
27544;DHT22;17996;51.056;3.656;2024-03-08T09:27:00;6.60;99.90
27544;DHT22;17996;51.056;3.656;2024-03-08T09:29:26;6.70;99.90
27544;DHT22;17996;51.056;3.656;2024-03-08T09:31:53;6.70;99.90
27544;DHT22;17996;51.056;3.656;2024-03-08T09:34:19;6.80;99.90
27544;DHT22;17996;51.056;3.656;2024-03-08T09:36:57;6.80;99.90
27544;DHT22;17996;51.056;3.656;2024-03-08T09:39:24;6.90;99.90
27544;DHT22;17996;51.056;3.656;2024-03-08T09:41:50;7.00;99.90
27544;DHT22;17996;51.056;3.656;2024-03-08T09:44:19;7.00;99.90
27544;DHT22;17996;51.056;3.656;2024-03-08T09:46:46;7.00;99.90
27544;DHT22;17996;51.056;3.656;2024-03-08T09:49:16;7.00;99.90
27544;DHT22;17996;51.056;3.656;2024-03-08T09:51:44;7.10;99.90
27544;DHT22;17996;51.056;3.656;2024-03-08T09:54:12;7.10;99.90
27544;DHT22;17996;51.056;3.656;2024-03-08T09:56:41;7.10;99.90
27544;DHT22;17996;51.056;3.656;2024-03-08T09:59:10;7.20;99.90
27544;DHT22;17996;51.056;3.656;2024-03-08T10:02:05;7.20;99.90
27544;DHT22;17996;51.056;3.656;2024-03-08T10:04:32;7.30;99.90
27544;DHT22;17996;51.056;3.656;2024-03-08T10:07:01;7.30;99.90
27544;DHT22;17996;51.056;3.656;2024-03-08T10:09:26;7.40;99.90
27544;DHT22;17996;51.056;3.656;2024-03-08T10:11:58;7.40;99.90
27544;DHT22;17996;51.056;3.656;2024-03-08T10:14:25;7.40;99.90
27544;DHT22;17996;51.056;3.656;2024-03-08T10:16:54;7.50;99.90
27544;DHT22;17996;51.056;3.656;2024-03-08T10:19:27;7.50;99.90
27544;DHT22;17996;51.056;3.656;2024-03-08T10:21:56;7.60;99.90
27544;DHT22;17996;51.056;3.656;2024-03-08T10:24:24;7.60;99.90
27544;DHT22;17996;51.056;3.656;2024-03-08T10:27:00;7.60;99.90
27544;DHT22;17996;51.056;3.656;2024-03-08T10:29:31;7.70;99.90
27544;DHT22;17996;51.056;3.656;2024-03-08T10:31:57;7.70;99.90
27544;DHT22;17996;51.056;3.656;2024-03-08T10:34:23;7.80;99.90
27544;DHT22;17996;51.056;3.656;2024-03-08T10:36:51;7.80;99.90
27544;DHT22;17996;51.056;3.656;2024-03-08T10:39:22;7.80;99.90
27544;DHT22;17996;51.056;3.656;2024-03-08T10:41:58;7.80;99.90
27544;DHT22;17996;51.056;3.656;2024-03-08T10:49:38;7.90;99.90
27544;DHT22;17996;51.056;3.656;2024-03-08T10:52:11;8.00;99.90
27544;DHT22;17996;51.056;3.656;2024-03-08T10:54:42;8.00;99.90
27544;DHT22;17996;51.056;3.656;2024-03-08T10:57:12;8.10;99.90
27544;DHT22;17996;51.056;3.656;2024-03-08T10:59:42;8.10;99.90
27544;DHT22;17996;51.056;3.656;2024-03-08T11:02:12;8.10;99.90
27544;DHT22;17996;51.056;3.656;2024-03-08T11:04:45;8.20;99.90
27544;DHT22;17996;51.056;3.656;2024-03-08T11:07:12;8.20;99.90
27544;DHT22;17996;51.056;3.656;2024-03-08T11:09:44;8.20;99.90
27544;DHT22;17996;51.056;3.656;2024-03-08T11:12:27;8.30;99.90
27544;DHT22;17996;51.056;3.656;2024-03-08T11:15:13;8.40;99.90
27544;DHT22;17996;51.056;3.656;2024-03-08T11:17:47;8.40;99.90
27544;DHT22;17996;51.056;3.656;2024-03-08T11:20:17;8.40;99.90
27544;DHT22;17996;51.056;3.656;2024-03-08T11:23:00;8.50;99.90
27544;DHT22;17996;51.056;3.656;2024-03-08T11:31:31;8.50;99.90
27544;DHT22;17996;51.056;3.656;2024-03-08T11:33:35;8.60;99.90
27544;DHT22;17996;51.056;3.656;2024-03-08T11:38:41;8.70;99.90
27544;DHT22;17996;51.056;3.656;2024-03-08T11:41:08;8.70;99.90
27544;DHT22;17996;51.056;3.656;2024-03-08T11:43:34;8.80;99.90
27544;DHT22;17996;51.056;3.656;2024-03-08T11:46:11;8.70;99.90
27544;DHT22;17996;51.056;3.656;2024-03-08T11:48:41;8.80;99.90
27544;DHT22;17996;51.056;3.656;2024-03-08T11:51:15;8.80;99.90
27544;DHT22;17996;51.056;3.656;2024-03-08T11:53:44;8.90;99.90
27544;DHT22;17996;51.056;3.656;2024-03-08T11:56:13;8.90;99.90
27544;DHT22;17996;51.056;3.656;2024-03-08T11:58:41;9.00;99.90
27544;DHT22;17996;51.056;3.656;2024-03-08T12:01:09;9.00;99.90
27544;DHT22;17996;51.056;3.656;2024-03-08T12:03:41;9.10;99.90
27544;DHT22;17996;51.056;3.656;2024-03-08T12:06:11;9.20;99.90
27544;DHT22;17996;51.056;3.656;2024-03-08T12:08:39;9.20;99.90
27544;DHT22;17996;51.056;3.656;2024-03-08T12:11:05;9.30;99.90
27544;DHT22;17996;51.056;3.656;2024-03-08T12:13:34;9.30;99.90
27544;DHT22;17996;51.056;3.656;2024-03-08T12:16:03;9.40;99.90
27544;DHT22;17996;51.056;3.656;2024-03-08T12:18:38;9.40;99.90
27544;DHT22;17996;51.056;3.656;2024-03-08T12:21:08;9.40;99.90
27544;DHT22;17996;51.056;3.656;2024-03-08T12:23:36;9.40;99.90
27544;DHT22;17996;51.056;3.656;2024-03-08T12:26:13;9.50;99.90
27544;DHT22;17996;51.056;3.656;2024-03-08T12:28:44;9.50;99.90
27544;DHT22;17996;51.056;3.656;2024-03-08T12:31:14;9.60;99.90
27544;DHT22;17996;51.056;3.656;2024-03-08T12:33:51;9.60;99.90
27544;DHT22;17996;51.056;3.656;2024-03-08T12:36:18;9.60;99.90
27544;DHT22;17996;51.056;3.656;2024-03-08T12:38:48;9.70;99.90
27544;DHT22;17996;51.056;3.656;2024-03-08T12:41:15;9.80;99.90
27544;DHT22;17996;51.056;3.656;2024-03-08T12:43:46;9.80;99.90
27544;DHT22;17996;51.056;3.656;2024-03-08T12:46:17;9.80;99.90
27544;DHT22;17996;51.056;3.656;2024-03-08T12:48:43;9.90;99.90
27544;DHT22;17996;51.056;3.656;2024-03-08T12:51:19;9.90;99.90
27544;DHT22;17996;51.056;3.656;2024-03-08T12:53:46;9.90;99.90
27544;DHT22;17996;51.056;3.656;2024-03-08T12:56:36;9.90;99.90
27544;DHT22;17996;51.056;3.656;2024-03-08T12:59:07;10.00;99.90
27544;DHT22;17996;51.056;3.656;2024-03-08T13:01:37;10.00;99.90
27544;DHT22;17996;51.056;3.656;2024-03-08T13:04:09;10.00;99.90
27544;DHT22;17996;51.056;3.656;2024-03-08T13:06:36;10.10;99.90
27544;DHT22;17996;51.056;3.656;2024-03-08T13:09:02;10.10;99.90
27544;DHT22;17996;51.056;3.656;2024-03-08T13:11:32;10.10;99.90
27544;DHT22;17996;51.056;3.656;2024-03-08T13:14:03;10.20;99.90
27544;DHT22;17996;51.056;3.656;2024-03-08T13:16:31;10.20;99.90
27544;DHT22;17996;51.056;3.656;2024-03-08T13:18:59;10.20;99.90
27544;DHT22;17996;51.056;3.656;2024-03-08T13:21:25;10.20;99.90
27544;DHT22;17996;51.056;3.656;2024-03-08T13:23:52;10.30;99.90
27544;DHT22;17996;51.056;3.656;2024-03-08T13:26:18;10.30;99.90
27544;DHT22;17996;51.056;3.656;2024-03-08T13:28:51;10.40;99.90
27544;DHT22;17996;51.056;3.656;2024-03-08T13:31:20;10.50;99.90
27544;DHT22;17996;51.056;3.656;2024-03-08T13:33:46;10.40;99.90
27544;DHT22;17996;51.056;3.656;2024-03-08T13:36:15;10.50;99.90
27544;DHT22;17996;51.056;3.656;2024-03-08T13:38:46;10.50;99.90
27544;DHT22;17996;51.056;3.656;2024-03-08T13:41:15;10.50;99.90
27544;DHT22;17996;51.056;3.656;2024-03-08T13:43:43;10.60;99.90
27544;DHT22;17996;51.056;3.656;2024-03-08T13:46:09;10.60;99.90
27544;DHT22;17996;51.056;3.656;2024-03-08T13:48:36;10.60;99.90
27544;DHT22;17996;51.056;3.656;2024-03-08T13:51:04;10.70;99.90
27544;DHT22;17996;51.056;3.656;2024-03-08T13:53:31;10.80;99.90
27544;DHT22;17996;51.056;3.656;2024-03-08T13:55:58;10.80;99.90
27544;DHT22;17996;51.056;3.656;2024-03-08T13:58:24;10.90;99.90
27544;DHT22;17996;51.056;3.656;2024-03-08T14:00:49;10.90;99.90
27544;DHT22;17996;51.056;3.656;2024-03-08T14:03:17;10.90;99.90
27544;DHT22;17996;51.056;3.656;2024-03-08T14:05:43;10.90;99.90
27544;DHT22;17996;51.056;3.656;2024-03-08T14:08:10;11.00;99.90
27544;DHT22;17996;51.056;3.656;2024-03-08T14:10:37;11.00;99.90
27544;DHT22;17996;51.056;3.656;2024-03-08T14:13:05;11.00;99.90
27544;DHT22;17996;51.056;3.656;2024-03-08T14:15:32;11.00;99.90
27544;DHT22;17996;51.056;3.656;2024-03-08T14:17:58;11.00;99.90
27544;DHT22;17996;51.056;3.656;2024-03-08T14:20:24;11.10;99.90
27544;DHT22;17996;51.056;3.656;2024-03-08T14:22:53;11.10;99.90
27544;DHT22;17996;51.056;3.656;2024-03-08T14:25:19;11.20;99.90
27544;DHT22;17996;51.056;3.656;2024-03-08T14:27:45;11.20;99.90
27544;DHT22;17996;51.056;3.656;2024-03-08T14:30:13;11.30;99.90
27544;DHT22;17996;51.056;3.656;2024-03-08T14:32:40;11.30;99.90
27544;DHT22;17996;51.056;3.656;2024-03-08T14:35:07;11.40;99.90
27544;DHT22;17996;51.056;3.656;2024-03-08T14:37:34;11.40;99.90
27544;DHT22;17996;51.056;3.656;2024-03-08T14:40:02;11.50;99.90
27544;DHT22;17996;51.056;3.656;2024-03-08T14:42:31;11.50;99.90
27544;DHT22;17996;51.056;3.656;2024-03-08T14:44:57;11.60;99.90
27544;DHT22;17996;51.056;3.656;2024-03-08T14:47:26;11.70;99.90
27544;DHT22;17996;51.056;3.656;2024-03-08T14:49:53;11.70;99.90
27544;DHT22;17996;51.056;3.656;2024-03-08T14:52:20;11.80;99.90
27544;DHT22;17996;51.056;3.656;2024-03-08T14:54:53;11.90;99.90
27544;DHT22;17996;51.056;3.656;2024-03-08T14:57:22;11.90;99.90
27544;DHT22;17996;51.056;3.656;2024-03-08T14:59:47;12.00;99.90
27544;DHT22;17996;51.056;3.656;2024-03-08T15:02:13;12.10;99.90
27544;DHT22;17996;51.056;3.656;2024-03-08T15:04:39;12.20;99.90
27544;DHT22;17996;51.056;3.656;2024-03-08T15:07:07;12.30;99.90
27544;DHT22;17996;51.056;3.656;2024-03-08T15:09:36;12.40;99.90
27544;DHT22;17996;51.056;3.656;2024-03-08T15:12:08;12.40;99.90
27544;DHT22;17996;51.056;3.656;2024-03-08T15:14:40;12.50;99.90
27544;DHT22;17996;51.056;3.656;2024-03-08T15:17:05;12.60;99.90
27544;DHT22;17996;51.056;3.656;2024-03-08T15:19:36;12.70;99.90
27544;DHT22;17996;51.056;3.656;2024-03-08T15:22:03;12.80;99.90
27544;DHT22;17996;51.056;3.656;2024-03-08T15:24:29;13.00;99.90
27544;DHT22;17996;51.056;3.656;2024-03-08T15:26:56;13.10;99.90
27544;DHT22;17996;51.056;3.656;2024-03-08T15:29:23;13.10;99.90
27544;DHT22;17996;51.056;3.656;2024-03-08T15:31:53;13.20;99.90
27544;DHT22;17996;51.056;3.656;2024-03-08T15:34:20;13.30;99.90
27544;DHT22;17996;51.056;3.656;2024-03-08T15:36:49;13.30;99.90
27544;DHT22;17996;51.056;3.656;2024-03-08T15:39:19;13.10;99.90
27544;DHT22;17996;51.056;3.656;2024-03-08T15:41:49;13.30;99.90
27544;DHT22;17996;51.056;3.656;2024-03-08T15:44:15;13.30;99.90
27544;DHT22;17996;51.056;3.656;2024-03-08T15:46:43;13.20;99.90
27544;DHT22;17996;51.056;3.656;2024-03-08T15:49:09;13.20;99.90
27544;DHT22;17996;51.056;3.656;2024-03-08T15:51:36;13.20;99.90
27544;DHT22;17996;51.056;3.656;2024-03-08T15:54:04;13.20;99.90
27544;DHT22;17996;51.056;3.656;2024-03-08T15:56:30;13.20;99.90
27544;DHT22;17996;51.056;3.656;2024-03-08T15:59:03;13.20;99.90
27544;DHT22;17996;51.056;3.656;2024-03-08T16:01:32;13.20;99.90
27544;DHT22;17996;51.056;3.656;2024-03-08T16:03:58;13.10;99.90
27544;DHT22;17996;51.056;3.656;2024-03-08T16:06:24;13.10;99.90